QRA weather

Rand Airport
Johannesburg, Gauteng, South Africa

Public forecast

Using degrees Celsius for public forecast. Weather courtesy of forecast.io.

METAR (pilot weather report)

Report is more than 6 hours old.

Retrieved 2019/04/15 09:00 UTC (5 days ago):

FAGM 150900Z 32013KT CAVOK 21/10 Q1023

TAF (pilot weather forecast)

Closest forecast is OR Tambo International Airport, 8.0 nm (14.9 km) NE. Retrieved 2019/04/20 12:00 UTC (2 hours ago):

TAF FAOR 201000Z 2012/2118 23013KT 9999 SCT035 TX22/2012Z TN13/2103Z PROB30 TEMPO 2012/2014 -TSRA FEW035CB BECMG 2014/2016 16015KT PROB40 TEMPO 2014/2018 3000 TSRA BKN020 SCT030CB BECMG 2018/2020 07008KT PROB30 TEMPO 2018/2021 -TSRA FEW035CB BECMG 2022/2024 CAVOK BECMG 2104/2106 BKN015 BECMG 2106/2108 34015KT BKN025 BECMG 2110/2112 17015G25KT PROB40 TEMPO 2110/2115 4000 TSRA SCT035CB BECMG 2113/2115 14013KT PROB30 TEMPO 2115/2117 -TSRA FEW035CB